Time;durP1;ratioP1;P1;durP2;ratioP2;P2;SDS_P1;SDS_P2;PMS_P1;PMS_P2;Temp;Humidity;BMP_temperature;BMP_pressure;BME280_temperature;BME280_humidity;BME280_pressure;Samples;Min_cycle;Max_cycle;Signal;HPM_P1;HPM_P2
2023/05/05 00:00:10;;;;;;;;;;;;;;;14.79;88.35;100076.97;5034294;28;20410;-82
2023/05/05 00:02:36;;;;;;;;;;;;;;;14.85;88.15;100080.31;5030816;28;20012;-82
2023/05/05 00:05:02;;;;;;;;;;;;;;;14.92;87.59;100078.41;5031555;28;20407;-82
2023/05/05 00:07:27;;;;;;;;;;;;;;;14.89;87.15;100070.50;5034054;28;19917;-82
2023/05/05 00:09:52;;;;;;;;;;;;;;;14.88;86.85;100067.91;5033935;28;19974;-81
2023/05/05 00:12:18;;;;;;;;;;;;;;;14.92;86.66;100072.19;5032555;28;19924;-84
2023/05/05 00:14:43;;;;;;;;;;;;;;;14.84;87.09;100072.41;5031308;28;20261;-85
2023/05/05 00:17:08;;;;;;;;;;;;;;;14.94;86.80;100070.38;5032733;28;19976;-84
2023/05/05 00:19:34;;;;;;;;;;;;;;;14.92;87.19;100061.56;5032588;28;19917;-84
2023/05/05 00:21:59;;;;;;;;;;;;;;;15.00;86.66;100068.44;5032544;28;19917;-83
2023/05/05 00:24:24;;;;;;;;;;;;;;;15.02;86.66;100060.41;5032280;28;19916;-84
2023/05/05 00:26:50;;;;;;;;;;;;;;;14.99;86.75;100058.69;5033442;28;19952;-84
2023/05/05 00:29:15;;;;;;;;;;;;;;;15.00;86.43;100062.25;5032660;28;19913;-84
2023/05/05 00:31:40;;;;;;;;;;;;;;;14.95;86.28;100056.19;5038453;28;19917;-84
2023/05/05 00:34:06;;;;;;;;;;;;;;;14.98;86.37;100058.75;5050494;28;19917;-84
2023/05/05 00:36:31;;;;;;;;;;;;;;;15.02;85.89;100060.41;5041834;28;20383;-83
2023/05/05 00:38:57;;;;;;;;;;;;;;;15.02;86.07;100063.06;5031320;28;19917;-84
2023/05/05 00:41:22;;;;;;;;;;;;;;;15.04;85.93;100056.81;5031618;28;19913;-83
2023/05/05 00:43:47;;;;;;;;;;;;;;;15.07;86.10;100060.28;5031582;28;19916;-84
2023/05/05 00:46:18;;;;;;;;;;;;;;;15.16;85.83;100054.72;5032033;28;19917;-83
2023/05/05 00:48:43;;;;;;;;;;;;;;;15.12;85.86;100053.94;5030025;28;20095;-83
2023/05/05 00:51:09;;;;;;;;;;;;;;;15.16;86.19;100057.38;5037297;28;20466;-82
2023/05/05 00:53:34;;;;;;;;;;;;;;;15.07;85.92;100063.81;5032099;28;20406;-83
2023/05/05 00:56:00;;;;;;;;;;;;;;;14.97;86.72;100054.38;5029609;28;19956;-83
2023/05/05 00:58:26;;;;;;;;;;;;;;;14.96;87.00;100056.13;5040545;28;19917;-82
2023/05/05 01:00:51;;;;;;;;;;;;;;;14.94;87.29;100054.44;5049543;28;19948;-83
2023/05/05 01:03:17;;;;;;;;;;;;;;;14.95;86.63;100057.06;5050818;28;19920;-83
2023/05/05 01:05:52;;;;;;;;;;;;;;;15.00;86.72;100052.50;5048132;28;19965;-84
2023/05/05 01:08:33;;;;;;;;;;;;;;;15.04;86.72;100050.59;5050377;28;19917;-84
2023/05/05 01:11:06;;;;;;;;;;;;;;;15.07;86.33;100047.00;5048943;28;19921;-86
2023/05/05 01:13:35;;;;;;;;;;;;;;;15.07;86.91;100054.97;5049321;28;19924;-85
2023/05/05 01:16:05;;;;;;;;;;;;;;;15.18;85.67;100045.81;5038158;28;20011;-85
2023/05/05 01:18:34;;;;;;;;;;;;;;;14.94;84.95;100044.69;5048555;28;19916;-83
2023/05/05 01:21:04;;;;;;;;;;;;;;;14.88;86.45;100041.34;5049041;28;19925;-84
2023/05/05 01:23:50;;;;;;;;;;;;;;;14.75;87.29;100046.97;5049248;28;19913;-81
2023/05/05 01:26:34;;;;;;;;;;;;;;;14.80;87.19;100036.22;5048285;28;20074;-83
2023/05/05 01:29:21;;;;;;;;;;;;;;;14.72;87.56;100044.41;5045026;28;19913;-83
2023/05/05 01:31:51;;;;;;;;;;;;;;;14.79;87.71;100034.47;4989389;28;1181220;-83
2023/05/05 01:34:23;;;;;;;;;;;;;;;14.93;87.12;100039.41;5031405;28;19960;-82
2023/05/05 01:36:54;;;;;;;;;;;;;;;14.84;87.66;100030.81;5031377;28;19985;-82
2023/05/05 01:39:20;;;;;;;;;;;;;;;14.84;88.22;100032.56;5032517;28;19921;-82
2023/05/05 01:41:47;;;;;;;;;;;;;;;14.81;88.58;100030.88;5031032;28;19917;-82
2023/05/05 01:44:15;;;;;;;;;;;;;;;14.83;88.12;100031.69;5031034;28;19913;-83
2023/05/05 01:46:40;;;;;;;;;;;;;;;14.83;88.54;100028.19;5030910;28;19913;-82
2023/05/05 01:49:06;;;;;;;;;;;;;;;14.84;88.90;100025.50;5035735;28;20290;-82
2023/05/05 01:51:32;;;;;;;;;;;;;;;14.91;88.18;100022.66;5033658;28;19939;-83
2023/05/05 01:53:59;;;;;;;;;;;;;;;14.90;87.92;100023.56;5039200;28;19925;-83
2023/05/05 01:56:25;;;;;;;;;;;;;;;14.86;88.21;100018.34;5032409;28;19913;-82
2023/05/05 01:58:51;;;;;;;;;;;;;;;14.86;88.21;100021.00;5031826;28;19917;-82
2023/05/05 02:01:17;;;;;;;;;;;;;;;14.91;88.09;100023.53;5032369;28;19913;-83
2023/05/05 02:03:43;;;;;;;;;;;;;;;14.90;88.03;100018.25;5033442;28;19917;-82
2023/05/05 02:06:10;;;;;;;;;;;;;;;14.91;88.07;100026.19;5031191;28;20399;-83
2023/05/05 02:08:38;;;;;;;;;;;;;;;14.98;87.54;100016.25;5031404;28;19913;-82
2023/05/05 02:11:04;;;;;;;;;;;;;;;14.99;87.52;100015.34;5031570;28;19938;-84
2023/05/05 02:13:31;;;;;;;;;;;;;;;14.95;87.57;100011.03;5030924;28;19917;-83
2023/05/05 02:15:57;;;;;;;;;;;;;;;14.92;87.44;100019.06;5032013;28;19924;-82
2023/05/05 02:18:23;;;;;;;;;;;;;;;14.95;87.95;100017.22;5030576;28;20303;-83
2023/05/05 02:20:49;;;;;;;;;;;;;;;14.94;87.23;100012.81;5030988;28;20460;-82
2023/05/05 02:23:14;;;;;;;;;;;;;;;14.85;87.09;100013.06;5037373;28;19947;-83
2023/05/05 02:25:47;;;;;;;;;;;;;;;14.89;86.84;100011.19;5048262;28;19923;-82
2023/05/05 02:28:16;;;;;;;;;;;;;;;15.00;85.94;100014.44;5050692;28;19917;-83
2023/05/05 02:30:42;;;;;;;;;;;;;;;14.96;85.33;100012.78;5050331;28;19913;-81
2023/05/05 02:33:09;;;;;;;;;;;;;;;14.91;85.27;100012.03;5050341;28;19913;-82
2023/05/05 02:35:36;;;;;;;;;;;;;;;14.94;84.74;100011.94;5049021;28;19924;-82
2023/05/05 02:38:04;;;;;;;;;;;;;;;14.89;84.30;100011.19;5047703;28;19936;-83
2023/05/05 02:40:31;;;;;;;;;;;;;;;14.93;85.14;100010.19;5065774;28;20310;-82
2023/05/05 02:42:58;;;;;;;;;;;;;;;14.94;84.77;100009.28;5049321;28;19912;-83
2023/05/05 02:45:25;;;;;;;;;;;;;;;15.00;83.89;100017.09;5050409;28;20016;-83
2023/05/05 02:47:51;;;;;;;;;;;;;;;14.95;83.68;100011.91;5047573;28;20378;-83
2023/05/05 02:50:16;;;;;;;;;;;;;;;14.92;84.17;100008.44;5050345;28;19909;-83
2023/05/05 02:52:42;;;;;;;;;;;;;;;14.96;84.22;100010.97;5049485;28;19939;-84
2023/05/05 02:55:08;;;;;;;;;;;;;;;14.99;84.60;100012.69;5050509;28;19951;-84
2023/05/05 02:57:40;;;;;;;;;;;;;;;14.96;84.45;100012.78;5052064;28;20560;-83
2023/05/05 03:00:22;;;;;;;;;;;;;;;14.94;84.31;100011.94;5052416;28;20322;-84
2023/05/05 03:03:04;;;;;;;;;;;;;;;14.98;84.22;100022.44;5056798;28;19970;-83
2023/05/05 03:05:33;;;;;;;;;;;;;;;14.97;84.47;100022.50;5050273;28;20330;-83
2023/05/05 03:08:02;;;;;;;;;;;;;;;14.99;83.99;100020.66;5053765;28;20023;-83
2023/05/05 03:10:34;;;;;;;;;;;;;;;14.90;84.32;100016.47;5054132;28;19935;-85
2023/05/05 03:13:00;;;;;;;;;;;;;;;14.72;84.59;100017.84;5054109;28;19955;-85
2023/05/05 03:15:41;;;;;;;;;;;;;;;14.92;84.49;100021.72;5049415;28;19925;-85
2023/05/05 03:18:07;;;;;;;;;;;;;;;14.95;84.05;100017.22;5054235;28;20414;-85
2023/05/05 03:20:33;;;;;;;;;;;;;;;14.81;84.85;100022.91;5053959;28;20015;-85
2023/05/05 03:23:00;;;;;;;;;;;;;;;14.79;85.38;100023.84;5052033;28;19923;-84
2023/05/05 03:25:51;;;;;;;;;;;;;;;14.73;86.29;100018.72;5050904;28;20502;-87
2023/05/05 03:28:17;;;;;;;;;;;;;;;14.76;85.49;100019.50;5047891;28;19924;-87
2023/05/05 03:30:43;;;;;;;;;;;;;;;14.59;86.67;100029.66;5051765;28;20263;-87
2023/05/05 03:33:11;;;;;;;;;;;;;;;14.69;86.14;100031.22;5051739;28;19916;-88
2023/05/05 03:35:36;;;;;;;;;;;;;;;14.82;85.82;100027.28;5034263;28;20402;-87
2023/05/05 03:38:02;;;;;;;;;;;;;;;14.88;85.00;100033.38;5032239;28;19917;-89
2023/05/05 03:40:27;;;;;;;;;;;;;;;15.00;84.10;100033.03;5031371;28;20376;-87
2023/05/05 03:42:52;;;;;;;;;;;;;;;14.93;84.42;100031.44;5035571;28;20525;-86
2023/05/05 03:45:18;;;;;;;;;;;;;;;14.96;84.40;100042.00;5044427;28;19917;-86
2023/05/05 03:47:43;;;;;;;;;;;;;;;14.97;84.64;100033.97;5032638;28;20379;-85
2023/05/05 03:50:08;;;;;;;;;;;;;;;15.00;84.39;100041.88;5031810;28;19944;-84
2023/05/05 03:52:34;;;;;;;;;;;;;;;15.06;85.20;100042.59;5033689;28;19986;-84
2023/05/05 03:54:59;;;;;;;;;;;;;;;15.01;85.31;100035.66;5031846;28;20004;-84
2023/05/05 03:57:25;;;;;;;;;;;;;;;15.01;84.81;100038.31;5034555;28;19921;-85
2023/05/05 03:59:51;;;;;;;;;;;;;;;14.86;86.48;100036.06;5031616;28;19931;-86
2023/05/05 04:02:17;;;;;;;;;;;;;;;15.00;85.14;100043.66;5031568;28;20003;-85
2023/05/05 04:04:42;;;;;;;;;;;;;;;14.73;86.96;100040.81;5032687;28;19916;-85
2023/05/05 04:07:07;;;;;;;;;;;;;;;14.54;87.61;100044.84;5031870;28;20397;-88
2023/05/05 04:09:33;;;;;;;;;;;;;;;14.35;88.42;100041.78;5032128;28;20431;-83
2023/05/05 04:11:58;;;;;;;;;;;;;;;14.51;87.24;100040.47;5031806;28;20263;-85
2023/05/05 04:14:23;;;;;;;;;;;;;;;14.64;86.80;100046.38;5030781;28;19913;-85
2023/05/05 04:16:49;;;;;;;;;;;;;;;14.51;86.49;100054.63;5035012;28;19920;-85
2023/05/05 04:19:14;;;;;;;;;;;;;;;14.42;86.57;100046.88;5035311;28;20074;-85
2023/05/05 04:21:39;;;;;;;;;;;;;;;14.63;84.52;100058.78;5048508;28;20671;-84
2023/05/05 04:24:05;;;;;;;;;;;;;;;14.64;84.21;100057.88;5051929;28;19923;-84
2023/05/05 04:26:30;;;;;;;;;;;;;;;14.66;84.07;100063.16;5051985;28;20019;-84
2023/05/05 04:28:55;;;;;;;;;;;;;;;14.64;84.18;100062.31;5050953;28;19920;-87
2023/05/05 04:31:21;;;;;;;;;;;;;;;14.86;83.33;100063.50;5039309;28;20367;-88
2023/05/05 04:33:46;;;;;;;;;;;;;;;14.55;84.38;100065.16;5037690;28;20374;-84
2023/05/05 04:36:11;;;;;;;;;;;;;;;14.26;86.17;100059.69;5051293;28;19916;-84
2023/05/05 04:38:36;;;;;;;;;;;;;;;14.40;85.94;100053.16;5047654;28;19920;-83
2023/05/05 04:41:07;;;;;;;;;;;;;;;14.35;85.64;100055.03;5036100;28;20022;-82
2023/05/05 04:43:33;;;;;;;;;;;;;;;14.24;85.81;100055.31;5031449;28;19917;-82
2023/05/05 04:45:58;;;;;;;;;;;;;;;14.24;86.13;100066.81;5030701;28;19923;-84
2023/05/05 04:48:23;;;;;;;;;;;;;;;14.35;84.41;100057.69;5041724;28;20768;-83
2023/05/05 04:50:50;;;;;;;;;;;;;;;14.31;83.56;100065.72;5049753;28;19916;-83
2023/05/05 04:53:15;;;;;;;;;;;;;;;14.13;83.64;100061.75;5048734;28;19948;-84
2023/05/05 04:55:40;;;;;;;;;;;;;;;14.22;82.78;100067.75;5050249;28;20405;-83
2023/05/05 04:58:06;;;;;;;;;;;;;;;14.20;83.54;100067.78;5050773;28;19991;-84
2023/05/05 05:00:31;;;;;;;;;;;;;;;14.17;83.17;100067.00;5064850;28;19912;-85
2023/05/05 05:02:56;;;;;;;;;;;;;;;14.37;82.86;100063.84;5045654;28;20418;-84
2023/05/05 05:05:22;;;;;;;;;;;;;;;14.26;82.04;100069.44;5047370;28;19909;-84
2023/05/05 05:07:47;;;;;;;;;;;;;;;14.39;83.02;100070.00;5050936;28;19912;-84
2023/05/05 05:10:12;;;;;;;;;;;;;;;14.50;82.55;100071.47;5051693;28;19940;-83
2023/05/05 05:12:38;;;;;;;;;;;;;;;14.39;81.82;100070.84;5042822;28;20405;-85
2023/05/05 05:15:03;;;;;;;;;;;;;;;14.34;83.15;100078.06;5051131;28;19913;-86
2023/05/05 05:17:29;;;;;;;;;;;;;;;14.35;82.75;100081.56;5045097;28;19917;-87
2023/05/05 05:19:55;;;;;;;;;;;;;;;14.33;82.55;100081.63;5044213;28;20011;-82
2023/05/05 05:22:21;;;;;;;;;;;;;;;14.39;83.24;100081.47;5040948;28;19920;-86
2023/05/05 05:24:46;;;;;;;;;;;;;;;14.60;82.73;100077.44;5031960;28;19917;-86
2023/05/05 05:27:11;;;;;;;;;;;;;;;14.62;81.44;100078.28;5036695;28;19917;-85
2023/05/05 05:29:36;;;;;;;;;;;;;;;14.54;80.46;100079.34;5039472;28;19913;-83
2023/05/05 05:32:02;;;;;;;;;;;;;;;14.67;80.62;100080.81;5033191;28;20315;-85
2023/05/05 05:34:27;;;;;;;;;;;;;;;14.71;80.54;100087.78;5047521;28;20451;-84
2023/05/05 05:36:52;;;;;;;;;;;;;;;14.77;79.56;100081.47;5039615;28;19939;-84
2023/05/05 05:39:18;;;;;;;;;;;;;;;14.97;80.45;100091.56;5040639;28;19921;-85
2023/05/05 05:41:43;;;;;;;;;;;;;;;15.01;78.53;100086.13;5041382;28;19913;-84
2023/05/05 05:44:08;;;;;;;;;;;;;;;15.07;78.28;100087.72;5046921;28;19916;-83
2023/05/05 05:46:34;;;;;;;;;;;;;;;14.81;79.44;100086.66;5041619;28;20393;-82
2023/05/05 05:48:59;;;;;;;;;;;;;;;14.88;78.38;100086.50;5045260;28;20291;-83
2023/05/05 05:51:25;;;;;;;;;;;;;;;15.16;79.15;100091.91;5045916;28;20298;-84
2023/05/05 05:53:50;;;;;;;;;;;;;;;15.15;78.44;100085.75;5047438;28;20276;-84
2023/05/05 05:56:16;;;;;;;;;;;;;;;15.20;78.87;100082.97;5046222;28;19935;-84
2023/05/05 05:58:41;;;;;;;;;;;;;;;15.41;78.40;100081.47;5044774;28;19919;-85
2023/05/05 06:01:06;;;;;;;;;;;;;;;15.51;78.08;100090.91;5050429;28;19917;-84
2023/05/05 06:03:32;;;;;;;;;;;;;;;15.70;77.14;100083.25;5045786;28;20003;-84
2023/05/05 06:05:58;;;;;;;;;;;;;;;15.92;76.39;100088.81;5040896;28;20000;-86
2023/05/05 06:08:23;;;;;;;;;;;;;;;15.47;74.54;100086.59;5048139;28;19917;-88
2023/05/05 06:10:48;;;;;;;;;;;;;;;15.47;74.78;100093.72;5049927;28;20306;-83
2023/05/05 06:13:14;;;;;;;;;;;;;;;15.44;76.22;100088.47;5051031;28;20314;-84
2023/05/05 06:15:39;;;;;;;;;;;;;;;15.52;74.40;100095.34;5050229;28;19913;-83
2023/05/05 06:18:05;;;;;;;;;;;;;;;16.05;72.39;100094.66;5050625;28;20027;-83
2023/05/05 06:20:30;;;;;;;;;;;;;;;16.31;73.02;100092.94;5050752;28;20322;-82
2023/05/05 06:22:55;;;;;;;;;;;;;;;16.14;73.47;100098.81;5043544;28;20033;-82
2023/05/05 06:25:21;;;;;;;;;;;;;;;16.27;72.99;100100.16;5046872;28;19916;-82
2023/05/05 06:27:46;;;;;;;;;;;;;;;16.32;69.60;100099.16;5049809;28;20342;-81
2023/05/05 06:30:12;;;;;;;;;;;;;;;16.21;70.47;100102.16;5049814;28;20405;-82
2023/05/05 06:32:37;;;;;;;;;;;;;;;16.35;69.79;100102.56;5049882;28;20019;-82
2023/05/05 06:35:02;;;;;;;;;;;;;;;16.56;69.15;100090.38;5049325;28;19913;-81
2023/05/05 06:37:28;;;;;;;;;;;;;;;16.72;68.44;100090.72;5049377;28;19916;-81
2023/05/05 06:39:53;;;;;;;;;;;;;;;16.69;68.20;100089.94;5050412;28;19919;-82
2023/05/05 06:42:18;;;;;;;;;;;;;;;16.92;67.23;100090.06;5049569;28;19916;-84
2023/05/05 06:44:43;;;;;;;;;;;;;;;17.17;68.45;100089.19;5049297;28;19951;-87
2023/05/05 06:47:09;;;;;;;;;;;;;;;17.46;67.20;100082.78;5041718;28;19913;-81
2023/05/05 06:49:34;;;;;;;;;;;;;;;16.91;67.25;100088.31;5049479;28;20003;-82
2023/05/05 06:52:00;;;;;;;;;;;;;;;17.59;64.57;100080.50;5050241;28;19954;-83
2023/05/05 06:54:25;;;;;;;;;;;;;;;17.62;64.30;100088.41;5050341;28;19912;-84
2023/05/05 06:56:51;;;;;;;;;;;;;;;17.78;63.80;100087.81;5049369;28;19952;-83
2023/05/05 06:59:16;;;;;;;;;;;;;;;17.67;62.49;100075.78;5045258;28;20351;-83
2023/05/05 07:01:41;;;;;;;;;;;;;;;17.76;63.44;100076.34;5049117;28;20446;-87
2023/05/05 07:04:07;;;;;;;;;;;;;;;18.13;62.42;100081.13;5048931;28;19970;-85
2023/05/05 07:06:32;;;;;;;;;;;;;;;18.07;59.51;100092.94;5049773;28;20021;-84
2023/05/05 07:08:57;;;;;;;;;;;;;;;17.98;62.62;100087.06;5049806;28;19917;-84
2023/05/05 07:11:23;;;;;;;;;;;;;;;18.10;62.07;100078.56;5049263;28;20375;-83
2023/05/05 07:13:48;;;;;;;;;;;;;;;18.49;61.83;100082.34;5042487;28;19916;-83
2023/05/05 07:16:13;;;;;;;;;;;;;;;18.58;60.80;100081.97;5048413;28;20025;-84
2023/05/05 07:18:39;;;;;;;;;;;;;;;18.62;59.18;100078.25;5048651;28;20414;-85
2023/05/05 07:21:07;;;;;;;;;;;;;;;18.91;62.57;100079.72;5048671;28;20402;-86
2023/05/05 07:23:33;;;;;;;;;;;;;;;19.28;61.26;100077.22;5048175;28;20062;-86
2023/05/05 07:25:58;;;;;;;;;;;;;;;19.51;58.46;100084.22;5046574;28;20007;-85
2023/05/05 07:28:24;;;;;;;;;;;;;;;19.38;58.21;100075.84;5047476;28;19931;-86
2023/05/05 07:30:50;;;;;;;;;;;;;;;18.87;58.55;100086.09;5047201;28;20648;-86
2023/05/05 07:33:17;;;;;;;;;;;;;;;19.29;60.17;100076.25;5046062;28;19917;-86
2023/05/05 07:35:42;;;;;;;;;;;;;;;19.34;56.75;100082.28;5048191;28;19917;-86
2023/05/05 07:38:07;;;;;;;;;;;;;;;19.16;57.32;100083.13;5048412;28;19939;-85
2023/05/05 07:40:33;;;;;;;;;;;;;;;18.86;57.35;100073.69;5047744;28;20378;-87
2023/05/05 07:43:00;;;;;;;;;;;;;;;19.37;61.17;100074.13;5052562;28;19966;-84
2023/05/05 07:45:27;;;;;;;;;;;;;;;19.61;58.04;100084.63;5053352;28;19956;-83
2023/05/05 07:47:53;;;;;;;;;;;;;;;19.79;56.11;100078.47;5049141;28;20284;-84
2023/05/05 07:50:19;;;;;;;;;;;;;;;19.74;57.16;100079.56;5044736;28;19923;-85
2023/05/05 07:52:44;;;;;;;;;;;;;;;19.91;54.78;100073.44;5052961;28;19943;-86
2023/05/05 07:55:10;;;;;;;;;;;;;;;19.82;54.03;100081.00;5052096;28;19913;-84
2023/05/05 07:57:35;;;;;;;;;;;;;;;19.54;53.80;100080.50;5052797;28;20015;-85
2023/05/05 08:00:01;;;;;;;;;;;;;;;19.91;56.31;100078.81;5046493;28;19912;-85
2023/05/05 08:02:26;;;;;;;;;;;;;;;19.88;53.91;100079.84;5052908;28;19939;-84
2023/05/05 08:04:51;;;;;;;;;;;;;;;19.96;54.20;100085.69;5050047;28;20367;-85
2023/05/05 08:07:17;;;;;;;;;;;;;;;19.70;52.54;100073.50;5052010;28;19913;-85
2023/05/05 08:09:42;;;;;;;;;;;;;;;19.68;57.38;100072.72;5051853;28;20307;-85
2023/05/05 08:12:07;;;;;;;;;;;;;;;20.34;55.90;100082.97;5051885;28;20390;-85
2023/05/05 08:14:33;;;;;;;;;;;;;;;20.07;52.19;100082.50;5067091;28;19999;-84
2023/05/05 08:16:58;;;;;;;;;;;;;;;19.92;55.08;100077.88;5052959;28;19974;-85
2023/05/05 08:19:23;;;;;;;;;;;;;;;20.38;52.73;100081.00;5051794;28;19919;-86
2023/05/05 08:21:49;;;;;;;;;;;;;;;20.57;49.99;100075.56;5051173;28;19912;-84
2023/05/05 08:24:14;;;;;;;;;;;;;;;20.28;53.36;100077.03;5052602;28;19920;-84
2023/05/05 08:26:40;;;;;;;;;;;;;;;20.97;54.47;100072.72;5067306;28;20399;-85
2023/05/05 08:29:05;;;;;;;;;;;;;;;20.83;53.78;100070.75;5050851;28;19919;-85
2023/05/05 08:31:38;;;;;;;;;;;;;;;20.98;54.45;100053.84;5049499;28;19923;-86
2023/05/05 08:34:04;;;;;;;;;;;;;;;21.45;52.46;100057.63;5048055;28;20399;-85
2023/05/05 08:36:29;;;;;;;;;;;;;;;21.92;48.59;100062.22;5052083;28;19913;-85
2023/05/05 08:38:55;;;;;;;;;;;;;;;21.96;54.41;100057.53;5051009;28;20306;-85
2023/05/05 08:41:20;;;;;;;;;;;;;;;22.15;52.05;100055.53;5050094;28;19916;-86
2023/05/05 08:43:49;;;;;;;;;;;;;;;22.66;50.38;100063.38;5051041;28;20026;-84
2023/05/05 08:46:15;;;;;;;;;;;;;;;22.64;48.91;100067.94;5051799;28;20371;-84
2023/05/05 08:48:41;;;;;;;;;;;;;;;22.06;48.41;100069.50;5051600;28;19913;-84
2023/05/05 08:51:08;;;;;;;;;;;;;;;22.41;47.49;100071.97;5049854;28;19917;-85
2023/05/05 08:53:36;;;;;;;;;;;;;;;21.91;45.68;100067.69;5045483;28;19912;-85
2023/05/05 08:56:03;;;;;;;;;;;;;;;21.58;46.77;100060.53;5051211;28;19952;-85
2023/05/05 08:58:29;;;;;;;;;;;;;;;21.39;49.31;100063.31;5051541;28;20417;-82
2023/05/05 09:00:55;;;;;;;;;;;;;;;22.22;46.98;100058.72;5051214;28;19919;-83
2023/05/05 09:03:20;;;;;;;;;;;;;;;22.63;47.58;100059.97;5046816;28;20314;-85
2023/05/05 09:05:46;;;;;;;;;;;;;;;22.90;45.13;100060.16;5051092;28;19913;-84
2023/05/05 09:08:12;;;;;;;;;;;;;;;22.34;43.72;100062.56;5050073;28;19931;-84
2023/05/05 09:10:40;;;;;;;;;;;;;;;22.25;43.01;100055.88;5046529;28;19923;-83
2023/05/05 09:13:06;;;;;;;;;;;;;;;22.04;44.04;100046.34;5050884;28;19916;-83
2023/05/05 09:15:32;;;;;;;;;;;;;;;22.74;44.83;100053.94;5050834;28;20411;-84
2023/05/05 09:17:57;;;;;;;;;;;;;;;22.83;46.47;100042.63;5050804;28;20337;-86
2023/05/05 09:20:23;;;;;;;;;;;;;;;23.47;43.21;100040.53;5050903;28;20054;-85
2023/05/05 09:22:48;;;;;;;;;;;;;;;23.55;42.40;100035.50;5048383;28;19917;-87
2023/05/05 09:25:15;;;;;;;;;;;;;;;24.21;40.46;100045.72;5050627;28;19917;-85
2023/05/05 09:27:45;;;;;;;;;;;;;;;23.52;41.54;100034.84;5046931;28;19925;-83
2023/05/05 09:30:13;;;;;;;;;;;;;;;22.85;43.20;100038.91;5049104;28;20514;-83
2023/05/05 09:32:56;;;;;;;;;;;;;;;23.04;42.92;100032.41;5048520;28;19925;-82
2023/05/05 09:35:22;;;;;;;;;;;;;;;22.80;42.91;100032.06;5041931;28;19928;-83
2023/05/05 09:37:47;;;;;;;;;;;;;;;22.31;44.58;100028.66;5048155;28;20267;-85
2023/05/05 09:40:13;;;;;;;;;;;;;;;22.53;45.06;100032.78;5048554;28;19951;-83
2023/05/05 09:42:39;;;;;;;;;;;;;;;23.09;43.20;100027.63;5048789;28;19917;-85
2023/05/05 09:45:17;;;;;;;;;;;;;;;23.14;41.67;100022.84;5050223;28;19919;-82
2023/05/05 09:47:44;;;;;;;;;;;;;;;23.14;42.05;100024.66;5048992;28;19919;-83
2023/05/05 09:50:13;;;;;;;;;;;;;;;22.60;40.94;100023.41;5046809;28;19916;-82
2023/05/05 09:52:38;;;;;;;;;;;;;;;22.27;41.71;100018.16;5046572;28;20447;-81
2023/05/05 09:55:03;;;;;;;;;;;;;;;22.42;41.76;100017.28;5047298;28;20015;-84
2023/05/05 09:57:31;;;;;;;;;;;;;;;22.15;44.61;100011.66;5048022;28;19974;-85
2023/05/05 10:00:01;;;;;;;;;;;;;;;22.61;41.63;100008.97;5050200;28;19913;-85
2023/05/05 10:02:30;;;;;;;;;;;;;;;23.51;42.62;99999.00;5050321;28;19912;-86
2023/05/05 10:05:05;;;;;;;;;;;;;;;23.84;43.10;100002.28;5049561;28;19996;-87
2023/05/05 10:07:30;;;;;;;;;;;;;;;23.66;41.56;100002.50;5049655;28;20373;-87
2023/05/05 10:09:56;;;;;;;;;;;;;;;24.01;41.21;99996.69;5049442;28;19959;-86
2023/05/05 10:12:22;;;;;;;;;;;;;;;24.23;40.59;99990.72;5050309;28;20007;-86
2023/05/05 10:14:47;;;;;;;;;;;;;;;23.95;42.56;99995.25;5049478;28;19913;-86
2023/05/05 10:17:14;;;;;;;;;;;;;;;24.20;38.46;99982.84;5048130;28;19970;-87
2023/05/05 10:19:40;;;;;;;;;;;;;;;24.39;43.02;99977.09;5049420;28;20015;-87
2023/05/05 10:22:07;;;;;;;;;;;;;;;24.49;38.59;99974.63;5048213;28;19999;-89
2023/05/05 10:24:32;;;;;;;;;;;;;;;23.28;39.46;99949.34;5049533;28;19913;-85
2023/05/05 10:26:58;;;;;;;;;;;;;;;22.86;40.39;99962.66;5038403;28;19940;-85
2023/05/05 10:29:56;;;;;;;;;;;;;;;22.95;41.31;99960.34;5044099;28;19921;-85
2023/05/05 10:32:27;;;;;;;;;;;;;;;22.90;44.97;99957.94;4968285;28;19925;-84
2023/05/05 10:34:56;;;;;;;;;;;;;;;22.87;41.46;99960.81;4968210;28;19917;-85
2023/05/05 10:37:21;;;;;;;;;;;;;;;23.10;41.85;99951.34;4968819;28;19997;-87
2023/05/05 10:39:48;;;;;;;;;;;;;;;23.58;43.11;99954.53;4968020;28;20297;-84
2023/05/05 10:42:14;;;;;;;;;;;;;;;23.80;41.25;99961.22;4968621;28;19925;-84
2023/05/05 10:44:40;;;;;;;;;;;;;;;24.13;41.65;99958.16;4968289;28;20300;-85
2023/05/05 10:47:05;;;;;;;;;;;;;;;23.86;40.09;99947.38;4968091;28;19914;-85
2023/05/05 10:49:33;;;;;;;;;;;;;;;23.78;41.13;99952.38;4968470;28;19957;-86
2023/05/05 10:52:06;;;;;;;;;;;;;;;23.12;41.51;99946.72;4968597;28;20314;-86
2023/05/05 10:54:37;;;;;;;;;;;;;;;23.44;41.68;99951.03;4967290;28;19914;-87
2023/05/05 10:57:03;;;;;;;;;;;;;;;23.40;41.65;99943.16;4951999;28;20299;-84
2023/05/05 10:59:35;;;;;;;;;;;;;;;23.63;41.60;99948.84;4968544;28;19922;-83
2023/05/05 11:02:00;;;;;;;;;;;;;;;23.15;43.11;99943.00;4968921;28;19965;-84
2023/05/05 11:04:25;;;;;;;;;;;;;;;23.42;42.53;99943.06;4967177;28;19917;-86
2023/05/05 11:07:09;;;;;;;;;;;;;;;23.49;42.49;99938.97;4971484;28;20376;-85
2023/05/05 11:09:37;;;;;;;;;;;;;;;23.33;42.26;99932.88;5037374;28;20433;-85
2023/05/05 11:12:05;;;;;;;;;;;;;;;23.44;41.57;99932.19;5048664;28;19913;-87
2023/05/05 11:14:32;;;;;;;;;;;;;;;23.25;42.19;99941.44;5049535;28;19916;-88
2023/05/05 11:16:57;;;;;;;;;;;;;;;23.10;42.00;99926.28;5051027;28;19932;-85
2023/05/05 11:19:43;;;;;;;;;;;;;;;23.12;41.14;99929.72;5053602;28;19912;-85
2023/05/05 11:22:09;;;;;;;;;;;;;;;23.35;42.01;99925.56;5052669;28;19932;-86
2023/05/05 11:24:35;;;;;;;;;;;;;;;23.48;42.28;99923.81;5053691;28;20366;-86
2023/05/05 11:27:00;;;;;;;;;;;;;;;23.83;42.05;99928.69;5053254;28;19966;-87
2023/05/05 11:29:26;;;;;;;;;;;;;;;23.87;41.19;99919.47;5053362;28;19916;-86
2023/05/05 11:32:13;;;;;;;;;;;;;;;23.93;42.05;99921.75;5052977;28;19924;-86
2023/05/05 11:34:48;;;;;;;;;;;;;;;24.16;42.83;99919.34;5052698;28;19912;-89
2023/05/05 11:37:14;;;;;;;;;;;;;;;24.23;42.62;99906.31;5051487;28;20303;-88
2023/05/05 11:39:50;;;;;;;;;;;;;;;24.53;40.10;99905.16;5051510;28;19912;-87
2023/05/05 11:42:15;;;;;;;;;;;;;;;24.40;38.67;99895.22;5042873;28;20015;-86
2023/05/05 11:44:40;;;;;;;;;;;;;;;24.52;39.90;99893.50;5052752;28;20007;-89
2023/05/05 11:47:06;;;;;;;;;;;;;;;24.29;39.43;99892.41;5051909;28;20306;-86
2023/05/05 11:49:35;;;;;;;;;;;;;;;24.05;39.39;99892.25;5051648;28;19979;-86
2023/05/05 11:52:02;;;;;;;;;;;;;;;24.08;40.34;99889.34;5049310;28;19964;-85
2023/05/05 11:54:27;;;;;;;;;;;;;;;23.68;39.69;99882.13;5045302;28;19927;-85
2023/05/05 11:56:53;;;;;;;;;;;;;;;23.54;42.24;99882.16;5051649;28;19912;-86
2023/05/05 11:59:19;;;;;;;;;;;;;;;23.66;42.12;99881.34;5052136;28;20012;-85
2023/05/05 12:01:44;;;;;;;;;;;;;;;24.03;42.65;99872.66;5051495;28;20019;-85
2023/05/05 12:04:13;;;;;;;;;;;;;;;24.14;42.24;99864.69;5052162;28;19920;-86
2023/05/05 12:06:38;;;;;;;;;;;;;;;24.32;41.47;99862.56;5049729;28;20011;-85
2023/05/05 12:09:04;;;;;;;;;;;;;;;24.39;40.03;99863.88;5051965;28;19913;-85
2023/05/05 12:11:30;;;;;;;;;;;;;;;24.29;39.67;99855.53;5052772;28;19913;-85
2023/05/05 12:14:10;;;;;;;;;;;;;;;24.02;40.68;99862.84;5051764;28;19913;-84
2023/05/05 12:16:36;;;;;;;;;;;;;;;23.60;41.25;99855.72;5052085;28;19912;-84
2023/05/05 12:19:04;;;;;;;;;;;;;;;23.53;40.86;99853.53;5048550;28;19917;-86
2023/05/05 12:21:30;;;;;;;;;;;;;;;23.60;40.72;99850.31;5049180;28;19917;-85
2023/05/05 12:23:55;;;;;;;;;;;;;;;23.24;40.94;99850.91;5050205;28;19924;-85
2023/05/05 12:26:27;;;;;;;;;;;;;;;23.57;41.15;99846.94;5052253;28;19913;-84
2023/05/05 12:28:53;;;;;;;;;;;;;;;23.41;40.43;99845.28;5051618;28;19913;-86
2023/05/05 12:31:19;;;;;;;;;;;;;;;23.81;40.18;99847.16;5052016;28;20303;-86
2023/05/05 12:33:44;;;;;;;;;;;;;;;23.62;40.51;99847.53;5050421;28;20003;-88
2023/05/05 12:36:11;;;;;;;;;;;;;;;23.25;39.91;99836.50;5048769;28;20412;-89